Time;durP1;ratioP1;P1;durP2;ratioP2;P2;SDS_P1;SDS_P2;PMS_P1;PMS_P2;Temp;Humidity;BMP_temperature;BMP_pressure;BME280_temperature;BME280_humidity;BME280_pressure;Samples;Min_cycle;Max_cycle;Signal;HPM_P1;HPM_P2
2021/08/09 00:01:53;;;;;;;0.40;0.20;;;;;;;13.48;100.00;100347.94;4997467;28;20450;-54
2021/08/09 00:04:20;;;;;;;0.40;0.20;;;;;;;13.58;100.00;100351.13;4997716;28;20962;-55
2021/08/09 00:06:47;;;;;;;0.40;0.20;;;;;;;13.63;100.00;100357.16;4989820;28;20477;-54
2021/08/09 00:09:13;;;;;;;0.40;0.20;;;;;;;13.64;100.00;100361.56;4996446;28;20559;-54
2021/08/09 00:11:40;;;;;;;0.40;0.20;;;;;;;13.44;100.00;100358.81;4997572;28;20516;-54
2021/08/09 00:14:07;;;;;;;0.40;0.20;;;;;;;13.47;100.00;100370.25;4997847;28;20456;-55
2021/08/09 00:16:34;;;;;;;0.40;0.20;;;;;;;13.42;100.00;100366.00;4997523;28;20474;-53
2021/08/09 00:19:01;;;;;;;0.40;0.20;;;;;;;13.29;100.00;100373.59;4997524;28;20450;-54
2021/08/09 00:21:28;;;;;;;0.40;0.20;;;;;;;13.26;100.00;100366.59;4997581;28;20453;-54
2021/08/09 00:23:54;;;;;;;0.40;0.20;;;;;;;13.33;100.00;100357.44;4996131;28;20453;-54
2021/08/09 00:26:22;;;;;;;0.40;0.20;;;;;;;13.33;100.00;100359.22;4997494;28;20481;-54
2021/08/09 00:28:49;;;;;;;0.40;0.20;;;;;;;13.28;100.00;100354.06;4997472;28;20488;-54
2021/08/09 00:31:15;;;;;;;0.40;0.30;;;;;;;13.26;100.00;100360.38;4997948;28;20462;-54
2021/08/09 00:33:42;;;;;;;0.30;0.20;;;;;;;13.16;100.00;100358.97;4997302;28;20969;-54
2021/08/09 00:36:09;;;;;;;0.40;0.20;;;;;;;13.26;100.00;100366.59;4996196;28;20470;-54
2021/08/09 00:38:35;;;;;;;0.40;0.20;;;;;;;13.17;100.00;100364.25;4996978;28;20955;-54
2021/08/09 00:41:02;;;;;;;0.40;0.20;;;;;;;13.15;100.00;100365.22;4997246;28;20857;-54
2021/08/09 00:43:29;;;;;;;0.40;0.20;;;;;;;13.27;100.00;100365.66;4996507;28;20475;-54
2021/08/09 00:45:57;;;;;;;0.40;0.20;;;;;;;13.39;100.00;100358.09;4984405;28;20473;-54
2021/08/09 00:48:26;;;;;;;7.30;1.23;;;;;;;13.16;100.00;100350.97;4996776;28;20517;-56
2021/08/09 00:50:53;;;;;;;0.40;0.20;;;;;;;13.15;100.00;100360.75;4995663;28;20461;-55
2021/08/09 00:53:21;;;;;;;0.33;0.20;;;;;;;13.42;100.00;100353.50;4991765;28;20458;-54
2021/08/09 00:55:51;;;;;;;0.40;0.20;;;;;;;12.98;100.00;100361.41;4997239;28;20532;-54
2021/08/09 00:58:19;;;;;;;0.40;0.30;;;;;;;12.93;100.00;100357.16;4996893;28;20457;-54
2021/08/09 01:00:45;;;;;;;0.40;0.20;;;;;;;12.82;100.00;100356.69;4996963;28;20449;-54
2021/08/09 01:03:13;;;;;;;0.60;0.60;;;;;;;12.83;100.00;100353.97;4997386;28;20453;-54
2021/08/09 01:05:41;;;;;;;0.40;0.20;;;;;;;12.76;100.00;100355.13;4991904;28;20474;-54
2021/08/09 01:08:24;;;;;;;0.40;0.20;;;;;;;12.67;100.00;100351.00;4992526;28;21081;-53
2021/08/09 01:11:20;;;;;;;0.40;0.20;;;;;;;12.75;100.00;100348.06;4996575;28;20482;-53
2021/08/09 01:14:08;;;;;;;0.33;0.20;;;;;;;12.84;100.00;100355.69;4975906;28;20445;-54
2021/08/09 01:16:37;;;;;;;0.40;0.20;;;;;;;12.72;100.00;100359.69;4996736;28;20473;-54
2021/08/09 01:19:39;;;;;;;0.40;0.20;;;;;;;12.67;100.00;100355.44;4996248;28;20481;-54
2021/08/09 01:22:37;;;;;;;0.40;0.20;;;;;;;12.68;100.00;100363.41;4948366;28;20461;-53
2021/08/09 01:25:35;;;;;;;0.40;0.20;;;;;;;12.58;100.00;100364.63;4960843;28;20474;-53
2021/08/09 01:28:03;;;;;;;0.40;0.20;;;;;;;12.42;100.00;100358.13;4996882;28;20909;-54
2021/08/09 01:30:31;;;;;;;0.30;0.20;;;;;;;12.36;100.00;100359.22;4996250;28;20449;-53
2021/08/09 01:32:58;;;;;;;0.40;0.20;;;;;;;12.45;100.00;100360.66;4996020;28;20453;-54
2021/08/09 01:35:27;;;;;;;0.40;0.23;;;;;;;12.43;100.00;100367.84;4993805;28;20473;-54
2021/08/09 01:37:56;;;;;;;0.40;0.20;;;;;;;12.50;100.00;100366.72;4996203;28;20492;-54
2021/08/09 01:40:24;;;;;;;0.40;0.20;;;;;;;12.56;100.00;100370.97;4996067;28;20458;-54
2021/08/09 01:42:51;;;;;;;0.40;0.20;;;;;;;12.57;100.00;100376.22;4996359;28;20449;-54
2021/08/09 01:45:20;;;;;;;0.40;0.20;;;;;;;12.55;100.00;100370.09;4983202;28;20537;-53
2021/08/09 01:47:47;;;;;;;0.40;0.20;;;;;;;12.37;100.00;100376.06;4995034;28;20524;-53
2021/08/09 01:50:15;;;;;;;0.30;0.20;;;;;;;12.39;100.00;100379.56;4994708;28;20512;-54
2021/08/09 01:52:43;;;;;;;0.40;0.20;;;;;;;12.43;100.00;100383.84;4988668;28;20500;-54
2021/08/09 01:55:12;;;;;;;1.23;1.23;;;;;;;12.41;100.00;100378.56;4995848;28;20478;-53
2021/08/09 01:57:39;;;;;;;0.40;0.20;;;;;;;12.44;100.00;100377.59;4996552;28;20886;-53
2021/08/09 02:00:16;;;;;;;0.30;0.20;;;;;;;12.48;100.00;100384.59;4995812;28;20449;-54
2021/08/09 02:02:44;;;;;;;0.40;0.30;;;;;;;12.47;100.00;100390.81;4996617;28;20477;-54
2021/08/09 02:05:19;;;;;;;0.40;0.20;;;;;;;12.52;100.00;100383.53;4995416;28;20509;-53
2021/08/09 02:07:47;;;;;;;0.40;0.20;;;;;;;12.42;100.00;100390.97;4989039;28;20452;-53
2021/08/09 02:10:18;;;;;;;0.40;0.20;;;;;;;12.40;100.00;100382.16;4995979;28;20508;-53
2021/08/09 02:13:11;;;;;;;0.40;0.20;;;;;;;12.39;100.00;100382.22;4995985;28;20489;-53
2021/08/09 02:15:41;;;;;;;0.40;0.20;;;;;;;12.42;100.00;100376.78;4968976;28;20473;-53
2021/08/09 02:18:19;;;;;;;0.40;0.20;;;;;;;12.52;100.00;100367.53;4995973;28;20453;-53
2021/08/09 02:20:46;;;;;;;0.40;0.30;;;;;;;12.57;100.00;100376.22;4995827;28;20445;-54
2021/08/09 02:23:18;;;;;;;0.30;0.20;;;;;;;12.49;100.00;100369.44;4995731;28;20504;-53
2021/08/09 02:25:49;;;;;;;0.40;0.20;;;;;;;12.65;100.00;100371.50;4995333;28;20594;-54
2021/08/09 02:28:19;;;;;;;0.30;0.20;;;;;;;12.59;100.00;100368.19;4995846;28;20492;-53
2021/08/09 02:30:50;;;;;;;0.40;0.20;;;;;;;12.59;100.00;100379.72;4996182;28;20481;-53
2021/08/09 02:33:20;;;;;;;0.30;0.20;;;;;;;12.57;100.00;100368.25;4995507;28;20523;-53
2021/08/09 02:35:48;;;;;;;0.40;0.20;;;;;;;12.62;100.00;100374.28;4993156;28;20517;-53
2021/08/09 02:38:16;;;;;;;0.30;0.20;;;;;;;12.82;100.00;100367.34;4995762;28;20485;-53
2021/08/09 02:40:44;;;;;;;0.30;0.20;;;;;;;12.70;100.00;100366.00;4995786;28;20446;-53
2021/08/09 02:43:12;;;;;;;0.30;0.20;;;;;;;12.88;100.00;100369.78;4995902;28;20450;-55
2021/08/09 02:45:41;;;;;;;0.40;0.20;;;;;;;12.65;100.00;100374.19;4982623;28;20545;-55
2021/08/09 02:48:08;;;;;;;0.40;0.20;;;;;;;12.69;100.00;100373.13;4995510;28;20910;-53
2021/08/09 02:50:35;;;;;;;0.40;0.20;;;;;;;12.61;100.00;100369.88;4995270;28;20488;-53
2021/08/09 02:53:03;;;;;;;0.40;0.30;;;;;;;12.73;100.00;100371.22;4987785;28;20465;-53
2021/08/09 02:55:31;;;;;;;0.30;0.20;;;;;;;12.73;100.00;100356.09;4995520;28;20500;-53
2021/08/09 02:58:06;;;;;;;0.30;0.20;;;;;;;12.63;100.00;100361.84;4995437;28;20453;-53
2021/08/09 03:00:33;;;;;;;0.30;0.20;;;;;;;12.78;100.00;100379.94;4995807;28;20445;-53
2021/08/09 03:03:00;;;;;;;0.30;0.20;;;;;;;12.71;100.00;100381.06;4995240;28;20454;-53
2021/08/09 03:05:28;;;;;;;0.30;0.20;;;;;;;12.69;100.00;100380.25;4995238;28;20974;-53
2021/08/09 03:07:55;;;;;;;0.30;0.20;;;;;;;12.71;100.00;100383.75;4995360;28;20476;-55
2021/08/09 03:10:21;;;;;;;0.30;0.20;;;;;;;12.64;100.00;100379.56;4995513;28;20493;-53
2021/08/09 03:12:56;;;;;;;0.40;0.20;;;;;;;12.72;100.00;100385.47;4995520;28;20823;-53
2021/08/09 03:15:22;;;;;;;0.30;0.20;;;;;;;12.54;100.00;100395.00;4995756;28;20469;-54
2021/08/09 03:17:49;;;;;;;0.30;0.20;;;;;;;12.48;100.00;100389.91;4995134;28;20453;-54
2021/08/09 03:20:15;;;;;;;0.30;0.20;;;;;;;12.46;100.00;100379.28;4994975;28;20449;-54
2021/08/09 03:22:42;;;;;;;0.30;0.20;;;;;;;12.50;100.00;100396.06;4994986;28;20477;-54
2021/08/09 03:25:09;;;;;;;0.33;0.20;;;;;;;12.45;100.00;100392.66;4994132;28;20489;-54
2021/08/09 03:27:35;;;;;;;0.40;0.20;;;;;;;12.49;100.00;100385.44;4994488;28;20449;-54
2021/08/09 03:30:02;;;;;;;0.30;0.20;;;;;;;12.53;100.00;100382.59;4993901;28;20520;-53
2021/08/09 03:32:28;;;;;;;0.30;0.20;;;;;;;12.59;100.00;100385.03;4992912;28;20453;-54
2021/08/09 03:34:55;;;;;;;0.30;0.20;;;;;;;12.56;100.00;100385.16;4994557;28;20454;-54
2021/08/09 03:37:22;;;;;;;0.40;0.20;;;;;;;12.74;100.00;100389.84;4991803;28;20461;-54
2021/08/09 03:39:48;;;;;;;0.30;0.20;;;;;;;12.92;100.00;100392.78;4994279;28;21006;-54
2021/08/09 03:42:19;;;;;;;0.30;0.20;;;;;;;12.79;100.00;100378.16;4994406;28;20485;-54
2021/08/09 03:44:46;;;;;;;0.30;0.20;;;;;;;12.95;100.00;100390.88;4985367;28;20442;-54
2021/08/09 03:47:13;;;;;;;0.40;0.20;;;;;;;12.88;100.00;100381.31;4996074;28;20523;-54
2021/08/09 03:49:40;;;;;;;0.30;0.20;;;;;;;12.69;100.00;100373.13;4998188;28;21052;-54
2021/08/09 03:52:07;;;;;;;0.40;0.20;;;;;;;12.72;100.00;100372.16;4991449;28;20519;-54
2021/08/09 03:54:33;;;;;;;0.30;0.20;;;;;;;12.46;100.00;100365.06;4998018;28;20453;-55
2021/08/09 03:57:00;;;;;;;0.30;0.20;;;;;;;12.65;100.00;100357.31;4974895;28;20517;-54
2021/08/09 03:59:27;;;;;;;0.30;0.20;;;;;;;12.69;100.00;100359.81;4989503;28;20465;-54
2021/08/09 04:01:53;;;;;;;0.40;0.30;;;;;;;12.66;100.00;100365.25;4997764;28;20449;-54
2021/08/09 04:04:20;;;;;;;0.30;0.20;;;;;;;12.83;100.00;100361.09;4998245;28;20477;-54
2021/08/09 04:06:47;;;;;;;0.33;0.20;;;;;;;12.82;100.00;100365.56;4989677;28;20895;-54
2021/08/09 04:09:13;;;;;;;0.90;0.90;;;;;;;12.83;100.00;100361.09;4998693;28;20917;-54
2021/08/09 04:11:40;;;;;;;0.40;0.20;;;;;;;12.53;100.00;100360.41;4997856;28;20458;-54
2021/08/09 04:14:06;;;;;;;0.30;0.20;;;;;;;12.57;100.00;100362.91;4998755;28;20460;-54
2021/08/09 04:16:33;;;;;;;0.30;0.20;;;;;;;12.47;100.00;100364.16;4998242;28;20496;-54
2021/08/09 04:19:00;;;;;;;0.40;0.20;;;;;;;12.60;100.00;100364.59;4998598;28;20453;-54
2021/08/09 04:21:27;;;;;;;0.30;0.20;;;;;;;12.78;100.00;100379.94;4999280;28;20930;-54
2021/08/09 04:23:53;;;;;;;0.30;0.20;;;;;;;13.05;100.00;100376.25;4998950;28;20536;-54
2021/08/09 04:26:20;;;;;;;0.30;0.20;;;;;;;12.87;100.00;100368.06;4997824;28;20848;-54
2021/08/09 04:28:47;;;;;;;0.30;0.20;;;;;;;12.91;100.00;100369.69;4996972;28;20543;-54
2021/08/09 04:31:14;;;;;;;0.30;0.20;;;;;;;12.82;100.00;100365.56;4998960;28;20449;-54
2021/08/09 04:33:49;;;;;;;0.30;0.20;;;;;;;12.86;100.00;100382.31;4998818;28;20874;-54
2021/08/09 04:36:17;;;;;;;0.30;0.20;;;;;;;12.94;100.00;100386.47;4976509;28;20469;-54
2021/08/09 04:38:44;;;;;;;0.33;0.20;;;;;;;12.96;100.00;100389.94;4983067;28;20510;-54
2021/08/09 04:41:11;;;;;;;0.30;0.20;;;;;;;13.02;100.00;100405.75;4998508;28;20457;-54
2021/08/09 04:43:40;;;;;;;0.30;0.20;;;;;;;13.04;100.00;100406.53;4996713;28;20480;-54
2021/08/09 04:46:07;;;;;;;0.30;0.20;;;;;;;13.13;100.00;100408.00;4987014;28;20473;-54
2021/08/09 04:48:34;;;;;;;0.30;0.20;;;;;;;13.05;100.00;100402.09;4997794;28;20500;-54
2021/08/09 04:51:01;;;;;;;0.40;0.30;;;;;;;12.98;100.00;100412.09;4995168;28;20449;-54
2021/08/09 04:53:27;;;;;;;0.30;0.20;;;;;;;13.07;100.00;100410.03;4994099;28;20480;-54
2021/08/09 04:55:54;;;;;;;0.30;0.20;;;;;;;13.39;100.00;100406.16;4997795;28;20478;-54
2021/08/09 04:58:21;;;;;;;0.30;0.20;;;;;;;13.28;100.00;100404.78;4998083;28;20832;-56
2021/08/09 05:00:48;;;;;;;0.30;0.20;;;;;;;13.16;100.00;100396.34;4997948;28;20512;-54
2021/08/09 05:03:14;;;;;;;0.30;0.20;;;;;;;13.29;100.00;100398.53;4997417;28;20461;-54
2021/08/09 05:05:45;;;;;;;1.70;1.33;;;;;;;13.42;100.00;100387.34;4992990;28;20822;-54
2021/08/09 05:08:12;;;;;;;0.40;0.30;;;;;;;13.33;100.00;100393.94;4994822;28;20871;-55
2021/08/09 05:10:39;;;;;;;0.30;0.20;;;;;;;13.18;100.00;100394.50;4997625;28;20930;-54
2021/08/09 05:13:06;;;;;;;0.40;0.20;;;;;;;13.46;100.00;100395.22;4997657;28;21101;-54
2021/08/09 05:15:34;;;;;;;0.30;0.20;;;;;;;13.34;100.00;100391.22;4997952;28;20473;-54
2021/08/09 05:18:01;;;;;;;0.30;0.20;;;;;;;13.96;100.00;100391.44;4998021;28;20476;-54
2021/08/09 05:20:29;;;;;;;0.30;0.20;;;;;;;14.23;100.00;100398.31;4997804;28;20453;-54
2021/08/09 05:22:55;;;;;;;0.77;0.60;;;;;;;14.76;100.00;100404.09;4998446;28;20450;-54
2021/08/09 05:25:23;;;;;;;0.30;0.20;;;;;;;15.20;100.00;100401.22;4997816;28;20539;-56
2021/08/09 05:27:49;;;;;;;0.40;0.20;;;;;;;15.65;100.00;100400.06;4994276;28;20500;-56
2021/08/09 05:30:17;;;;;;;0.40;0.20;;;;;;;16.19;100.00;100396.50;4994179;28;20837;-56
2021/08/09 05:32:43;;;;;;;0.40;0.20;;;;;;;16.52;100.00;100404.63;4993999;28;20456;-55
2021/08/09 05:35:10;;;;;;;0.40;0.20;;;;;;;16.67;100.00;100396.75;4993763;28;20535;-56
2021/08/09 05:37:37;;;;;;;0.40;0.30;;;;;;;16.98;98.05;100388.84;4992172;28;20464;-56
2021/08/09 05:40:05;;;;;;;0.40;0.20;;;;;;;17.08;98.58;100386.53;4993941;28;20504;-56
2021/08/09 05:42:32;;;;;;;0.40;0.20;;;;;;;17.50;95.98;100393.19;4993646;28;20820;-56
2021/08/09 05:44:59;;;;;;;0.40;0.20;;;;;;;17.26;97.50;100388.22;4981933;28;20447;-56
2021/08/09 05:47:25;;;;;;;0.40;0.20;;;;;;;16.86;100.00;100387.69;4993251;28;20485;-56
2021/08/09 05:49:54;;;;;;;0.50;0.50;;;;;;;16.35;100.00;100376.94;4993691;28;20492;-56
2021/08/09 05:52:25;;;;;;;0.40;0.20;;;;;;;16.20;100.00;100382.13;4986376;28;20453;-56
2021/08/09 05:54:52;;;;;;;0.40;0.20;;;;;;;15.90;100.00;100383.66;4993490;28;20446;-56
2021/08/09 05:57:19;;;;;;;0.47;0.40;;;;;;;15.94;100.00;100387.91;4993594;28;20950;-56
2021/08/09 05:59:46;;;;;;;0.43;0.30;;;;;;;15.90;100.00;100386.34;4993452;28;20446;-56
2021/08/09 06:02:13;;;;;;;0.40;0.20;;;;;;;15.95;100.00;100387.84;4993754;28;20959;-56
2021/08/09 06:04:41;;;;;;;0.40;0.20;;;;;;;16.28;100.00;100387.09;4993432;28;20464;-56
2021/08/09 06:07:15;;;;;;;0.40;0.20;;;;;;;16.53;100.00;100386.72;4984897;28;20461;-55
2021/08/09 06:09:44;;;;;;;0.40;0.20;;;;;;;16.53;100.00;100378.66;4993579;28;20535;-56
2021/08/09 06:12:12;;;;;;;0.40;0.20;;;;;;;16.52;100.00;100388.53;4993586;28;20503;-56
2021/08/09 06:14:39;;;;;;;0.50;0.40;;;;;;;16.26;100.00;100392.53;4993232;28;20428;-56
2021/08/09 06:17:07;;;;;;;0.97;0.77;;;;;;;16.12;100.00;100391.50;4993351;28;21057;-56
2021/08/09 06:19:35;;;;;;;0.40;0.20;;;;;;;16.12;100.00;100402.22;4993238;28;20532;-55
2021/08/09 06:22:03;;;;;;;0.40;0.20;;;;;;;15.97;100.00;100404.72;4993624;28;20449;-56
2021/08/09 06:24:30;;;;;;;0.40;0.20;;;;;;;15.89;100.00;100411.38;4993346;28;20453;-56
2021/08/09 06:26:56;;;;;;;0.40;0.20;;;;;;;16.39;100.00;100426.81;4993255;28;20552;-56
2021/08/09 06:29:23;;;;;;;0.40;0.20;;;;;;;17.18;100.00;100423.56;4991966;28;20492;-56
2021/08/09 06:31:50;;;;;;;0.40;0.20;;;;;;;17.58;99.25;100434.84;4993221;28;21006;-56
2021/08/09 06:34:16;;;;;;;0.40;0.20;;;;;;;17.96;96.49;100431.88;4993019;28;20943;-56
2021/08/09 06:36:43;;;;;;;0.40;0.30;;;;;;;17.92;96.55;100427.59;4991051;28;20504;-55
2021/08/09 06:39:11;;;;;;;0.40;0.20;;;;;;;17.99;95.79;100429.84;4992985;28;20480;-55
2021/08/09 06:41:38;;;;;;;0.40;0.20;;;;;;;18.06;95.53;100433.06;4993103;28;20486;-55
2021/08/09 06:44:04;;;;;;;0.40;0.20;;;;;;;18.05;95.27;100434.00;4988056;28;20425;-56
2021/08/09 06:46:31;;;;;;;0.40;0.20;;;;;;;17.85;96.29;100447.72;4984953;28;20481;-55
2021/08/09 06:48:58;;;;;;;0.40;0.20;;;;;;;18.11;93.82;100438.19;4992970;28;20448;-56
2021/08/09 06:51:25;;;;;;;0.40;0.20;;;;;;;17.48;98.62;100439.84;4987133;28;20521;-56
2021/08/09 06:53:51;;;;;;;0.40;0.20;;;;;;;17.39;99.52;100436.78;4991252;28;20449;-55
2021/08/09 06:56:18;;;;;;;0.40;0.20;;;;;;;17.29;98.74;100425.69;4992795;28;20520;-55
2021/08/09 06:58:45;;;;;;;0.40;0.20;;;;;;;17.30;99.48;100424.72;4993839;28;20503;-57
2021/08/09 07:01:11;;;;;;;0.40;0.20;;;;;;;17.44;97.37;100422.16;4992607;28;20503;-57
2021/08/09 07:03:39;;;;;;;0.40;0.20;;;;;;;17.20;99.67;100418.09;4992045;28;20964;-55
2021/08/09 07:06:06;;;;;;;0.40;0.20;;;;;;;17.73;99.47;100423.25;4985578;28;20532;-56
2021/08/09 07:08:32;;;;;;;0.40;0.20;;;;;;;17.66;98.14;100407.50;4992279;28;20432;-56
2021/08/09 07:10:59;;;;;;;0.40;0.20;;;;;;;17.81;96.78;100408.50;4993394;28;20520;-55
2021/08/09 07:13:25;;;;;;;0.40;0.20;;;;;;;17.45;98.19;100406.91;4992676;28;20449;-57
2021/08/09 07:15:52;;;;;;;0.40;0.20;;;;;;;18.35;95.31;100410.69;4993309;28;20489;-57
2021/08/09 07:18:19;;;;;;;0.40;0.20;;;;;;;18.03;96.12;100399.13;4992343;28;20440;-57
2021/08/09 07:20:45;;;;;;;0.40;0.20;;;;;;;18.04;97.08;100408.94;4997555;28;20453;-58
2021/08/09 07:23:15;;;;;;;0.40;0.20;;;;;;;18.55;93.48;100411.38;4997192;28;20509;-56
2021/08/09 07:25:42;;;;;;;0.60;0.60;;;;;;;18.80;93.75;100414.34;4996368;28;20999;-57
2021/08/09 07:28:09;;;;;;;0.40;0.20;;;;;;;19.24;92.35;100418.81;4996334;28;20866;-57
2021/08/09 07:30:35;;;;;;;0.40;0.20;;;;;;;19.08;91.11;100418.91;4996371;28;20997;-57
2021/08/09 07:33:02;;;;;;;0.40;0.20;;;;;;;19.02;91.84;100421.97;4996281;28;20481;-57
2021/08/09 07:35:28;;;;;;;0.40;0.20;;;;;;;18.89;92.74;100421.00;4993528;28;20482;-56
2021/08/09 07:37:55;;;;;;;0.40;0.20;;;;;;;18.82;92.43;100419.66;4996089;28;20856;-57
2021/08/09 07:40:22;;;;;;;0.40;0.30;;;;;;;19.01;94.01;100412.16;4996266;28;20477;-57
2021/08/09 07:42:51;;;;;;;0.40;0.20;;;;;;;19.33;92.16;100417.41;4996263;28;20456;-57
2021/08/09 07:45:18;;;;;;;0.40;0.20;;;;;;;19.39;90.32;100414.31;4982959;28;20488;-57
2021/08/09 07:47:45;;;;;;;0.40;0.20;;;;;;;19.51;90.39;100413.53;4996221;28;20449;-57
2021/08/09 07:50:12;;;;;;;0.40;0.20;;;;;;;19.09;92.07;100419.78;4995943;28;20496;-57
2021/08/09 07:52:39;;;;;;;0.40;0.20;;;;;;;19.20;91.59;100423.56;4989067;28;20466;-57
2021/08/09 07:55:06;;;;;;;0.40;0.20;;;;;;;19.08;91.80;100415.34;4995792;28;20473;-57
2021/08/09 07:57:32;;;;;;;0.40;0.20;;;;;;;18.78;91.94;100420.81;4995982;28;20454;-57
2021/08/09 07:59:59;;;;;;;0.60;0.50;;;;;;;18.94;92.35;100422.47;4995985;28;20424;-57
2021/08/09 08:02:26;;;;;;;0.40;0.20;;;;;;;19.24;91.23;100417.00;4995983;28;20428;-57
2021/08/09 08:04:52;;;;;;;0.40;0.20;;;;;;;19.19;92.75;100411.03;4995828;28;20471;-56
2021/08/09 08:07:19;;;;;;;0.40;0.20;;;;;;;19.57;92.34;100405.06;4987015;28;20428;-57
2021/08/09 08:09:48;;;;;;;0.40;0.20;;;;;;;19.77;89.93;100403.81;4995416;28;20463;-57
2021/08/09 08:12:15;;;;;;;0.47;0.43;;;;;;;19.60;89.34;100401.31;4995725;28;20449;-57
2021/08/09 08:14:42;;;;;;;0.40;0.20;;;;;;;19.28;91.48;100396.09;4995484;28;20914;-57
2021/08/09 08:17:09;;;;;;;0.40;0.20;;;;;;;19.33;91.26;100402.09;4995523;28;20544;-57
2021/08/09 08:19:36;;;;;;;0.40;0.20;;;;;;;19.53;91.71;100406.22;4995388;28;20804;-57
2021/08/09 08:22:02;;;;;;;0.40;0.30;;;;;;;20.00;89.14;100397.75;4995334;28;20840;-57
2021/08/09 08:24:29;;;;;;;0.40;0.20;;;;;;;19.70;89.78;100395.22;4995277;28;20484;-57
2021/08/09 08:26:56;;;;;;;0.40;0.20;;;;;;;19.76;89.33;100396.69;4995373;28;20513;-57
2021/08/09 08:29:22;;;;;;;0.40;0.30;;;;;;;19.56;90.04;100400.63;4995330;28;20457;-56
2021/08/09 08:31:49;;;;;;;0.50;0.40;;;;;;;19.95;88.65;100408.00;4994671;28;20969;-57
2021/08/09 08:34:16;;;;;;;0.50;0.40;;;;;;;20.20;89.27;100406.38;4994096;28;20453;-56
2021/08/09 08:36:42;;;;;;;0.40;0.20;;;;;;;20.41;89.40;100405.81;4992168;28;20890;-57
2021/08/09 08:39:10;;;;;;;0.40;0.20;;;;;;;20.69;85.94;100410.22;4995048;28;20888;-57
2021/08/09 08:41:46;;;;;;;0.40;0.20;;;;;;;20.74;87.68;100409.91;4995386;28;20624;-56
2021/08/09 08:44:19;;;;;;;0.40;0.30;;;;;;;20.87;86.88;100416.19;4989190;28;20489;-57
2021/08/09 08:46:47;;;;;;;0.40;0.20;;;;;;;21.67;83.36;100414.16;4988854;28;20448;-57
2021/08/09 08:49:15;;;;;;;1.90;1.70;;;;;;;21.18;83.76;100414.91;4994894;28;20508;-57
2021/08/09 08:51:44;;;;;;;0.40;0.30;;;;;;;21.43;84.54;100407.78;4987943;28;20488;-57
2021/08/09 08:54:14;;;;;;;0.40;0.20;;;;;;;21.68;84.45;100409.59;4995123;28;20478;-57
2021/08/09 08:56:42;;;;;;;0.40;0.30;;;;;;;21.21;85.17;100405.72;4994991;28;20444;-57
2021/08/09 08:59:17;;;;;;;0.40;0.27;;;;;;;21.29;84.81;100403.38;4995014;28;20428;-57
2021/08/09 09:01:46;;;;;;;0.50;0.50;;;;;;;21.15;84.86;100407.03;4994901;28;20455;-57
2021/08/09 09:04:20;;;;;;;0.40;0.20;;;;;;;21.64;84.58;100408.06;4994742;28;20959;-57
2021/08/09 09:06:47;;;;;;;3.90;1.13;;;;;;;21.83;85.07;100403.06;4986135;28;20522;-57
2021/08/09 09:09:24;;;;;;;0.40;0.20;;;;;;;22.18;81.67;100397.75;4994630;28;20508;-57
2021/08/09 09:11:50;;;;;;;0.40;0.20;;;;;;;22.59;81.06;100393.75;4994693;28;20471;-57
2021/08/09 09:14:30;;;;;;;0.40;0.30;;;;;;;22.85;80.21;100398.03;4994499;28;20424;-57
2021/08/09 09:16:58;;;;;;;0.40;0.23;;;;;;;22.76;81.84;100406.88;4972592;28;20452;-57
2021/08/09 09:19:46;;;;;;;0.40;0.40;;;;;;;22.86;78.69;100398.91;4993302;28;20449;-56
2021/08/09 09:22:16;;;;;;;0.40;0.20;;;;;;;22.98;72.86;100409.66;4994498;28;20781;-57
2021/08/09 09:24:48;;;;;;;0.50;0.40;;;;;;;23.15;73.57;100402.91;4994059;28;20487;-57
2021/08/09 09:27:30;;;;;;;0.40;0.30;;;;;;;23.03;74.43;100393.91;4994565;28;20443;-57
2021/08/09 09:29:58;;;;;;;0.40;0.20;;;;;;;23.15;73.92;100394.75;4994555;28;20524;-57
2021/08/09 09:32:25;;;;;;;0.40;0.27;;;;;;;23.37;72.82;100393.06;4994097;28;20491;-57
2021/08/09 09:34:54;;;;;;;0.40;0.23;;;;;;;23.33;74.15;100398.75;4993988;28;20453;-57
2021/08/09 09:37:23;;;;;;;0.40;0.20;;;;;;;23.08;72.55;100387.25;4991957;28;20487;-57
2021/08/09 09:39:50;;;;;;;0.40;0.30;;;;;;;22.95;72.78;100387.34;4994296;28;20537;-57
2021/08/09 09:42:16;;;;;;;0.40;0.20;;;;;;;22.95;73.14;100390.94;4993013;28;20454;-57
2021/08/09 09:44:43;;;;;;;0.40;0.20;;;;;;;23.21;71.77;100385.28;4984287;28;20494;-57
2021/08/09 09:47:27;;;;;;;0.40;0.20;;;;;;;23.66;71.36;100375.31;4991058;28;20449;-57
2021/08/09 09:49:57;;;;;;;0.40;0.30;;;;;;;23.97;69.59;100375.50;4993748;28;20520;-57
2021/08/09 09:52:32;;;;;;;0.40;0.20;;;;;;;24.33;67.39;100380.59;4986152;28;20954;-57
2021/08/09 09:55:02;;;;;;;0.50;0.40;;;;;;;24.38;64.00;100372.06;4993635;28;20958;-56
2021/08/09 09:57:34;;;;;;;0.40;0.30;;;;;;;23.51;66.68;100374.69;4993866;28;20449;-57
2021/08/09 10:00:02;;;;;;;2.10;2.00;;;;;;;23.47;66.30;100375.94;4993818;28;20436;-56
2021/08/09 10:02:29;;;;;;;0.40;0.30;;;;;;;23.71;65.77;100378.53;4993671;28;20431;-56
2021/08/09 10:04:55;;;;;;;0.40;0.23;;;;;;;23.94;68.02;100382.91;4993649;28;20436;-56
2021/08/09 10:07:25;;;;;;;0.40;0.20;;;;;;;24.23;65.96;100382.34;4985080;28;20453;-56
2021/08/09 10:09:54;;;;;;;0.40;0.30;;;;;;;24.31;64.56;100385.31;4993327;28;20873;-57
2021/08/09 10:12:30;;;;;;;0.40;0.20;;;;;;;24.23;66.12;100391.34;4993465;28;20507;-55
2021/08/09 10:14:58;;;;;;;0.40;0.30;;;;;;;24.65;65.63;100379.72;4992443;28;20441;-57
2021/08/09 10:17:29;;;;;;;0.40;0.20;;;;;;;24.77;62.89;100393.13;4993610;28;20493;-56
2021/08/09 10:19:59;;;;;;;0.50;0.40;;;;;;;25.10;62.67;100381.22;4993516;28;20504;-57
2021/08/09 10:22:26;;;;;;;0.80;0.70;;;;;;;25.27;60.49;100392.47;4993518;28;20450;-57
2021/08/09 10:24:57;;;;;;;0.40;0.20;;;;;;;25.38;60.04;100386.94;4992980;28;20820;-56
2021/08/09 10:27:42;;;;;;;0.40;0.30;;;;;;;25.19;61.36;100384.97;4993123;28;20864;-56
2021/08/09 10:30:08;;;;;;;1.13;0.67;;;;;;;24.62;63.46;100390.84;4972338;28;20485;-57
2021/08/09 10:33:05;;;;;;;0.40;0.20;;;;;;;24.79;62.99;100380.25;4993236;28;20898;-56
2021/08/09 10:35:45;;;;;;;0.40;0.30;;;;;;;24.50;62.67;100390.03;4989457;28;20498;-57
2021/08/09 10:38:20;;;;;;;0.40;0.20;;;;;;;24.67;64.20;100394.03;4993200;28;20423;-56
2021/08/09 10:41:08;;;;;;;0.40;0.20;;;;;;;24.55;62.64;100395.09;4993179;28;20504;-56
2021/08/09 10:43:41;;;;;;;0.40;0.30;;;;;;;24.66;62.68;100393.16;4991997;28;20511;-56
2021/08/09 10:46:40;;;;;;;0.40;0.23;;;;;;;24.58;61.85;100400.28;4981669;28;20520;-56
2021/08/09 10:49:31;;;;;;;0.40;0.30;;;;;;;24.09;63.49;100401.63;4993118;28;20544;-57
2021/08/09 10:51:57;;;;;;;0.50;0.30;;;;;;;24.20;64.34;100410.63;4985373;28;20987;-57
2021/08/09 10:54:33;;;;;;;0.40;0.30;;;;;;;24.08;64.42;100405.34;4992460;28;20459;-56
2021/08/09 10:57:03;;;;;;;0.40;0.20;;;;;;;24.47;65.90;100403.91;4992651;28;20485;-57
2021/08/09 10:59:50;;;;;;;0.40;0.20;;;;;;;24.20;64.46;100398.91;4993036;28;20461;-57
2021/08/09 11:02:19;;;;;;;0.40;0.20;;;;;;;24.50;65.04;100404.50;4968978;28;20902;-57
2021/08/09 11:05:11;;;;;;;0.40;0.20;;;;;;;24.66;62.44;100411.34;4992517;28;20947;-57
2021/08/09 11:07:37;;;;;;;0.40;0.30;;;;;;;24.44;61.40;100404.16;4976770;28;20428;-57
2021/08/09 11:10:05;;;;;;;7.90;1.27;;;;;;;24.61;62.47;100403.59;4992549;28;20477;-56
2021/08/09 11:12:31;;;;;;;1.63;1.53;;;;;;;24.63;61.72;100406.16;4992751;28;20427;-57
2021/08/09 11:15:03;;;;;;;0.40;0.23;;;;;;;24.69;60.80;100405.66;4992600;28;20481;-56
2021/08/09 11:17:46;;;;;;;0.40;0.20;;;;;;;24.43;63.54;100397.88;4992672;28;20503;-57
2021/08/09 11:20:21;;;;;;;0.40;0.30;;;;;;;24.54;63.66;100396.09;4969835;28;20466;-57
2021/08/09 11:23:02;;;;;;;0.40;0.20;;;;;;;24.87;63.97;100401.34;4992617;28;20484;-57
2021/08/09 11:25:30;;;;;;;0.90;0.40;;;;;;;24.37;63.08;100395.66;4993103;28;20481;-59
2021/08/09 11:28:19;;;;;;;0.40;0.30;;;;;;;24.30;61.60;100407.19;4992842;28;20500;-59
2021/08/09 11:30:56;;;;;;;0.40;0.30;;;;;;;24.29;63.31;100405.44;4992433;28;20901;-59
2021/08/09 11:33:31;;;;;;;0.40;0.20;;;;;;;24.19;62.94;100411.63;4992809;28;20427;-59